Welcome to La Porte Aviation Services!

An aviation adventure awaits

Current Weather Conditions

Available data for KPPO from the past 2 hours
LA PORTE, IN
Metar
KPPO 020315Z AUTO 27008KT 10SM SCT110 M04/M07 A3013 RMK AO2 T10401070

03:15 UTC

Wind: 270° 8kt

Visibility: 10 SM

Sky: SCT 11000 ft

Temp: -4 deg C / 24.8 deg F

Dewpoint: -7 deg C / 19.4 deg F

Pressure: 30.13 inHg

Connect with us on Facebook!

Facebook By Weblizar Powered By Weblizar